sensor_id;sensor_type;location;lat;lon;timestamp;P1;durP1;ratioP1;P2;durP2;ratioP2
14603;SDS011;7388;51.078;13.740;2022-10-04T00:03:34;4.60;;;1.95;;
14603;SDS011;7388;51.078;13.740;2022-10-04T00:06:10;5.50;;;2.92;;
14603;SDS011;7388;51.078;13.740;2022-10-04T00:08:52;4.25;;;2.60;;
14603;SDS011;7388;51.078;13.740;2022-10-04T00:11:43;5.32;;;2.00;;
14603;SDS011;7388;51.078;13.740;2022-10-04T00:14:16;11.65;;;1.95;;
14603;SDS011;7388;51.078;13.740;2022-10-04T00:16:50;10.07;;;1.90;;
14603;SDS011;7388;51.078;13.740;2022-10-04T00:19:24;5.35;;;2.00;;
14603;SDS011;7388;51.078;13.740;2022-10-04T00:22:10;4.78;;;2.30;;
14603;SDS011;7388;51.078;13.740;2022-10-04T00:24:59;6.13;;;2.20;;
14603;SDS011;7388;51.078;13.740;2022-10-04T00:28:13;4.85;;;2.20;;
14603;SDS011;7388;51.078;13.740;2022-10-04T00:33:42;3.47;;;2.22;;
14603;SDS011;7388;51.078;13.740;2022-10-04T00:47:28;2.83;;;1.83;;
14603;SDS011;7388;51.078;13.740;2022-10-04T00:50:00;3.70;;;2.60;;
14603;SDS011;7388;51.078;13.740;2022-10-04T00:52:33;6.18;;;2.05;;
14603;SDS011;7388;51.078;13.740;2022-10-04T00:55:05;6.82;;;2.17;;
14603;SDS011;7388;51.078;13.740;2022-10-04T00:57:43;4.07;;;1.90;;
14603;SDS011;7388;51.078;13.740;2022-10-04T01:00:16;6.68;;;2.40;;
14603;SDS011;7388;51.078;13.740;2022-10-04T01:02:50;5.47;;;2.47;;
14603;SDS011;7388;51.078;13.740;2022-10-04T01:05:24;5.97;;;1.98;;
14603;SDS011;7388;51.078;13.740;2022-10-04T01:10:45;3.17;;;1.73;;
14603;SDS011;7388;51.078;13.740;2022-10-04T01:13:16;5.05;;;2.10;;
14603;SDS011;7388;51.078;13.740;2022-10-04T01:15:50;3.80;;;1.80;;
14603;SDS011;7388;51.078;13.740;2022-10-04T01:31:33;3.67;;;1.83;;
14603;SDS011;7388;51.078;13.740;2022-10-04T01:34:01;4.55;;;1.83;;
14603;SDS011;7388;51.078;13.740;2022-10-04T01:36:29;5.40;;;2.10;;
14603;SDS011;7388;51.078;13.740;2022-10-04T01:38:56;4.68;;;2.13;;
14603;SDS011;7388;51.078;13.740;2022-10-04T01:41:27;6.30;;;1.70;;
14603;SDS011;7388;51.078;13.740;2022-10-04T01:43:55;10.38;;;2.13;;
14603;SDS011;7388;51.078;13.740;2022-10-04T01:46:25;6.30;;;1.95;;
14603;SDS011;7388;51.078;13.740;2022-10-04T01:48:56;4.00;;;1.65;;
14603;SDS011;7388;51.078;13.740;2022-10-04T01:51:29;6.22;;;2.00;;
14603;SDS011;7388;51.078;13.740;2022-10-04T01:53:59;5.47;;;2.08;;
14603;SDS011;7388;51.078;13.740;2022-10-04T01:56:31;3.35;;;1.95;;
14603;SDS011;7388;51.078;13.740;2022-10-04T01:59:03;5.95;;;2.92;;
14603;SDS011;7388;51.078;13.740;2022-10-04T02:01:51;4.90;;;1.98;;
14603;SDS011;7388;51.078;13.740;2022-10-04T02:04:35;4.30;;;2.30;;
14603;SDS011;7388;51.078;13.740;2022-10-04T02:07:08;5.78;;;1.75;;
14603;SDS011;7388;51.078;13.740;2022-10-04T02:09:37;5.47;;;2.03;;
14603;SDS011;7388;51.078;13.740;2022-10-04T02:12:07;6.10;;;1.73;;
14603;SDS011;7388;51.078;13.740;2022-10-04T02:14:34;3.40;;;1.85;;
14603;SDS011;7388;51.078;13.740;2022-10-04T02:17:06;9.88;;;1.95;;
14603;SDS011;7388;51.078;13.740;2022-10-04T02:19:35;5.90;;;1.92;;
14603;SDS011;7388;51.078;13.740;2022-10-04T02:22:03;4.43;;;2.20;;
14603;SDS011;7388;51.078;13.740;2022-10-04T02:24:31;3.40;;;1.83;;
14603;SDS011;7388;51.078;13.740;2022-10-04T02:26:59;4.50;;;1.80;;
14603;SDS011;7388;51.078;13.740;2022-10-04T02:29:25;6.10;;;2.00;;
14603;SDS011;7388;51.078;13.740;2022-10-04T02:31:51;4.27;;;2.90;;
14603;SDS011;7388;51.078;13.740;2022-10-04T02:34:36;6.78;;;2.58;;
14603;SDS011;7388;51.078;13.740;2022-10-04T02:37:03;5.10;;;1.73;;
14603;SDS011;7388;51.078;13.740;2022-10-04T02:39:31;18.83;;;2.42;;
14603;SDS011;7388;51.078;13.740;2022-10-04T02:42:11;5.25;;;2.08;;
14603;SDS011;7388;51.078;13.740;2022-10-04T02:44:43;7.05;;;2.40;;
14603;SDS011;7388;51.078;13.740;2022-10-04T02:47:22;6.72;;;1.60;;
14603;SDS011;7388;51.078;13.740;2022-10-04T02:49:57;2.10;;;1.45;;
14603;SDS011;7388;51.078;13.740;2022-10-04T02:52:32;5.90;;;2.10;;
14603;SDS011;7388;51.078;13.740;2022-10-04T02:55:04;8.60;;;2.03;;
14603;SDS011;7388;51.078;13.740;2022-10-04T02:57:32;2.63;;;1.58;;
14603;SDS011;7388;51.078;13.740;2022-10-04T03:02:37;6.47;;;1.50;;
14603;SDS011;7388;51.078;13.740;2022-10-04T03:05:12;13.85;;;2.53;;
14603;SDS011;7388;51.078;13.740;2022-10-04T03:07:39;12.00;;;2.10;;
14603;SDS011;7388;51.078;13.740;2022-10-04T03:10:07;5.55;;;3.20;;
14603;SDS011;7388;51.078;13.740;2022-10-04T03:12:36;5.38;;;2.40;;
14603;SDS011;7388;51.078;13.740;2022-10-04T03:15:09;3.97;;;2.03;;
14603;SDS011;7388;51.078;13.740;2022-10-04T03:17:38;3.67;;;1.80;;
14603;SDS011;7388;51.078;13.740;2022-10-04T03:20:07;3.58;;;1.33;;
14603;SDS011;7388;51.078;13.740;2022-10-04T03:22:37;7.80;;;1.65;;
14603;SDS011;7388;51.078;13.740;2022-10-04T03:25:03;7.82;;;2.38;;
14603;SDS011;7388;51.078;13.740;2022-10-04T03:27:32;5.13;;;1.90;;
14603;SDS011;7388;51.078;13.740;2022-10-04T03:29:58;3.17;;;2.20;;
14603;SDS011;7388;51.078;13.740;2022-10-04T03:32:26;9.75;;;2.08;;
14603;SDS011;7388;51.078;13.740;2022-10-04T03:34:55;5.38;;;2.67;;
14603;SDS011;7388;51.078;13.740;2022-10-04T03:37:27;10.90;;;2.30;;
14603;SDS011;7388;51.078;13.740;2022-10-04T03:39:56;3.53;;;2.47;;
14603;SDS011;7388;51.078;13.740;2022-10-04T03:42:23;4.63;;;2.25;;
14603;SDS011;7388;51.078;13.740;2022-10-04T03:44:59;5.97;;;2.10;;
14603;SDS011;7388;51.078;13.740;2022-10-04T03:47:32;6.95;;;1.95;;
14603;SDS011;7388;51.078;13.740;2022-10-04T03:50:03;7.82;;;2.65;;
14603;SDS011;7388;51.078;13.740;2022-10-04T03:52:37;5.38;;;2.30;;
14603;SDS011;7388;51.078;13.740;2022-10-04T03:55:05;4.22;;;1.83;;
14603;SDS011;7388;51.078;13.740;2022-10-04T03:57:32;4.80;;;2.72;;
14603;SDS011;7388;51.078;13.740;2022-10-04T04:00:00;4.15;;;1.98;;
14603;SDS011;7388;51.078;13.740;2022-10-04T04:02:32;6.07;;;2.30;;
14603;SDS011;7388;51.078;13.740;2022-10-04T04:07:48;10.73;;;2.08;;
14603;SDS011;7388;51.078;13.740;2022-10-04T04:10:29;4.85;;;2.53;;
14603;SDS011;7388;51.078;13.740;2022-10-04T04:13:03;5.95;;;2.10;;
14603;SDS011;7388;51.078;13.740;2022-10-04T04:15:31;6.13;;;2.40;;
14603;SDS011;7388;51.078;13.740;2022-10-04T04:18:02;6.43;;;2.50;;
14603;SDS011;7388;51.078;13.740;2022-10-04T04:20:37;3.47;;;2.25;;
14603;SDS011;7388;51.078;13.740;2022-10-04T04:25:49;8.82;;;2.85;;
14603;SDS011;7388;51.078;13.740;2022-10-04T04:28:31;5.63;;;2.40;;
14603;SDS011;7388;51.078;13.740;2022-10-04T04:33:42;9.85;;;2.75;;
14603;SDS011;7388;51.078;13.740;2022-10-04T04:36:15;5.35;;;2.95;;
14603;SDS011;7388;51.078;13.740;2022-10-04T04:38:41;6.47;;;2.60;;
14603;SDS011;7388;51.078;13.740;2022-10-04T04:41:27;5.70;;;2.35;;
14603;SDS011;7388;51.078;13.740;2022-10-04T04:43:56;7.93;;;2.45;;
14603;SDS011;7388;51.078;13.740;2022-10-04T04:46:22;11.23;;;3.33;;
14603;SDS011;7388;51.078;13.740;2022-10-04T04:48:50;7.32;;;2.50;;
14603;SDS011;7388;51.078;13.740;2022-10-04T04:51:28;4.35;;;2.72;;
14603;SDS011;7388;51.078;13.740;2022-10-04T04:53:56;12.05;;;2.30;;
14603;SDS011;7388;51.078;13.740;2022-10-04T04:56:24;5.20;;;2.65;;
14603;SDS011;7388;51.078;13.740;2022-10-04T04:58:52;9.18;;;1.95;;
14603;SDS011;7388;51.078;13.740;2022-10-04T05:01:23;4.78;;;2.10;;
14603;SDS011;7388;51.078;13.740;2022-10-04T05:06:38;7.28;;;2.90;;
14603;SDS011;7388;51.078;13.740;2022-10-04T05:09:05;4.05;;;1.92;;
14603;SDS011;7388;51.078;13.740;2022-10-04T05:11:46;6.72;;;2.33;;
14603;SDS011;7388;51.078;13.740;2022-10-04T05:14:13;13.38;;;3.03;;
14603;SDS011;7388;51.078;13.740;2022-10-04T05:16:42;9.45;;;3.47;;
14603;SDS011;7388;51.078;13.740;2022-10-04T05:19:30;11.40;;;3.45;;
14603;SDS011;7388;51.078;13.740;2022-10-04T05:21:59;6.20;;;2.47;;
14603;SDS011;7388;51.078;13.740;2022-10-04T05:27:05;7.30;;;3.00;;
14603;SDS011;7388;51.078;13.740;2022-10-04T05:29:37;7.45;;;2.40;;
14603;SDS011;7388;51.078;13.740;2022-10-04T05:35:15;6.60;;;2.25;;
14603;SDS011;7388;51.078;13.740;2022-10-04T05:40:32;3.45;;;2.30;;
14603;SDS011;7388;51.078;13.740;2022-10-04T05:43:00;6.70;;;2.33;;
14603;SDS011;7388;51.078;13.740;2022-10-04T05:45:27;4.60;;;2.78;;
14603;SDS011;7388;51.078;13.740;2022-10-04T05:47:56;10.68;;;2.65;;
14603;SDS011;7388;51.078;13.740;2022-10-04T05:53:08;4.47;;;2.13;;
14603;SDS011;7388;51.078;13.740;2022-10-04T05:55:52;15.85;;;2.58;;
14603;SDS011;7388;51.078;13.740;2022-10-04T06:12:55;5.70;;;2.90;;
14603;SDS011;7388;51.078;13.740;2022-10-04T06:26:22;5.50;;;2.60;;
14603;SDS011;7388;51.078;13.740;2022-10-04T06:28:53;5.57;;;2.70;;
14603;SDS011;7388;51.078;13.740;2022-10-04T06:31:36;12.73;;;4.60;;
14603;SDS011;7388;51.078;13.740;2022-10-04T07:02:05;9.63;;;2.55;;
14603;SDS011;7388;51.078;13.740;2022-10-04T07:04:51;4.57;;;2.03;;
14603;SDS011;7388;51.078;13.740;2022-10-04T07:07:29;7.40;;;3.63;;
14603;SDS011;7388;51.078;13.740;2022-10-04T07:12:42;4.75;;;2.42;;
14603;SDS011;7388;51.078;13.740;2022-10-04T07:15:27;5.30;;;2.58;;
14603;SDS011;7388;51.078;13.740;2022-10-04T07:18:02;8.73;;;2.35;;
14603;SDS011;7388;51.078;13.740;2022-10-04T07:20:33;5.35;;;2.40;;
14603;SDS011;7388;51.078;13.740;2022-10-04T07:23:20;4.78;;;2.17;;
14603;SDS011;7388;51.078;13.740;2022-10-04T07:25:53;5.78;;;2.28;;
14603;SDS011;7388;51.078;13.740;2022-10-04T07:28:27;4.90;;;1.90;;
14603;SDS011;7388;51.078;13.740;2022-10-04T07:33:52;9.57;;;2.08;;
14603;SDS011;7388;51.078;13.740;2022-10-04T07:36:49;4.95;;;2.25;;
14603;SDS011;7388;51.078;13.740;2022-10-04T07:39:22;4.57;;;2.42;;
14603;SDS011;7388;51.078;13.740;2022-10-04T07:41:54;3.03;;;2.40;;
14603;SDS011;7388;51.078;13.740;2022-10-04T07:46:59;8.88;;;2.75;;
14603;SDS011;7388;51.078;13.740;2022-10-04T07:49:37;7.38;;;1.77;;
14603;SDS011;7388;51.078;13.740;2022-10-04T08:05:40;7.00;;;3.47;;
14603;SDS011;7388;51.078;13.740;2022-10-04T08:11:01;11.43;;;2.70;;
14603;SDS011;7388;51.078;13.740;2022-10-04T08:16:50;8.65;;;3.28;;
14603;SDS011;7388;51.078;13.740;2022-10-04T08:19:15;5.13;;;2.60;;
14603;SDS011;7388;51.078;13.740;2022-10-04T08:24:49;5.38;;;2.58;;
14603;SDS011;7388;51.078;13.740;2022-10-04T08:35:33;11.88;;;3.28;;
14603;SDS011;7388;51.078;13.740;2022-10-04T08:38:32;3.92;;;2.30;;
14603;SDS011;7388;51.078;13.740;2022-10-04T08:44:02;4.85;;;2.60;;
14603;SDS011;7388;51.078;13.740;2022-10-04T08:46:48;12.10;;;3.55;;
14603;SDS011;7388;51.078;13.740;2022-10-04T08:52:28;5.90;;;2.75;;
14603;SDS011;7388;51.078;13.740;2022-10-04T09:06:03;4.70;;;2.22;;
14603;SDS011;7388;51.078;13.740;2022-10-04T09:11:44;8.38;;;3.20;;
14603;SDS011;7388;51.078;13.740;2022-10-04T09:45:11;5.07;;;3.90;;
14603;SDS011;7388;51.078;13.740;2022-10-04T09:50:40;4.93;;;2.97;;
14603;SDS011;7388;51.078;13.740;2022-10-04T10:02:01;8.82;;;3.65;;
14603;SDS011;7388;51.078;13.740;2022-10-04T10:10:34;9.55;;;2.72;;
14603;SDS011;7388;51.078;13.740;2022-10-04T10:30:23;9.30;;;3.30;;
14603;SDS011;7388;51.078;13.740;2022-10-04T10:44:50;2.50;;;1.63;;
14603;SDS011;7388;51.078;13.740;2022-10-04T10:53:37;3.40;;;1.77;;
14603;SDS011;7388;51.078;13.740;2022-10-04T11:05:01;4.60;;;1.40;;
14603;SDS011;7388;51.078;13.740;2022-10-04T11:37:04;7.50;;;3.70;;
14603;SDS011;7388;51.078;13.740;2022-10-04T11:42:47;8.00;;;2.60;;
14603;SDS011;7388;51.078;13.740;2022-10-04T11:46:03;4.43;;;1.90;;
14603;SDS011;7388;51.078;13.740;2022-10-04T11:51:10;2.97;;;1.50;;
14603;SDS011;7388;51.078;13.740;2022-10-04T11:59:47;2.90;;;1.90;;
14603;SDS011;7388;51.078;13.740;2022-10-04T12:08:16;8.40;;;4.67;;
14603;SDS011;7388;51.078;13.740;2022-10-04T12:13:49;4.70;;;1.77;;
14603;SDS011;7388;51.078;13.740;2022-10-04T12:22:41;5.63;;;1.87;;
14603;SDS011;7388;51.078;13.740;2022-10-04T12:26:05;6.03;;;2.27;;
14603;SDS011;7388;51.078;13.740;2022-10-04T12:28:32;3.80;;;1.97;;
14603;SDS011;7388;51.078;13.740;2022-10-04T12:31:06;6.67;;;2.30;;
14603;SDS011;7388;51.078;13.740;2022-10-04T12:39:56;2.67;;;1.63;;
14603;SDS011;7388;51.078;13.740;2022-10-04T12:50:55;8.97;;;2.10;;
14603;SDS011;7388;51.078;13.740;2022-10-04T13:10:22;2.70;;;1.77;;
14603;SDS011;7388;51.078;13.740;2022-10-04T13:18:39;3.10;;;1.67;;
14603;SDS011;7388;51.078;13.740;2022-10-04T13:21:10;2.90;;;1.70;;
14603;SDS011;7388;51.078;13.740;2022-10-04T13:26:33;5.13;;;1.70;;
14603;SDS011;7388;51.078;13.740;2022-10-04T13:29:10;3.83;;;2.47;;
14603;SDS011;7388;51.078;13.740;2022-10-04T13:32:12;3.60;;;1.70;;
14603;SDS011;7388;51.078;13.740;2022-10-04T13:40:27;2.80;;;1.67;;
14603;SDS011;7388;51.078;13.740;2022-10-04T13:46:20;2.77;;;1.50;;
14603;SDS011;7388;51.078;13.740;2022-10-04T13:49:06;10.83;;;1.97;;
14603;SDS011;7388;51.078;13.740;2022-10-04T13:55:30;3.80;;;1.60;;
14603;SDS011;7388;51.078;13.740;2022-10-04T13:58:33;3.10;;;1.90;;
14603;SDS011;7388;51.078;13.740;2022-10-04T14:01:36;3.77;;;1.50;;
14603;SDS011;7388;51.078;13.740;2022-10-04T14:04:16;3.03;;;1.30;;
14603;SDS011;7388;51.078;13.740;2022-10-04T14:26:03;4.63;;;1.77;;
14603;SDS011;7388;51.078;13.740;2022-10-04T14:37:10;2.30;;;1.20;;
14603;SDS011;7388;51.078;13.740;2022-10-04T14:40:07;3.30;;;1.23;;
14603;SDS011;7388;51.078;13.740;2022-10-04T14:45:49;1.67;;;1.03;;
14603;SDS011;7388;51.078;13.740;2022-10-04T14:54:00;2.50;;;1.10;;
14603;SDS011;7388;51.078;13.740;2022-10-04T15:07:21;2.03;;;1.27;;
14603;SDS011;7388;51.078;13.740;2022-10-04T15:12:44;3.40;;;2.00;;
14603;SDS011;7388;51.078;13.740;2022-10-04T15:20:53;5.30;;;1.80;;
14603;SDS011;7388;51.078;13.740;2022-10-04T15:23:50;1.57;;;0.97;;
14603;SDS011;7388;51.078;13.740;2022-10-04T15:33:52;2.50;;;1.20;;
14603;SDS011;7388;51.078;13.740;2022-10-04T15:36:30;3.70;;;0.73;;
14603;SDS011;7388;51.078;13.740;2022-10-04T15:39:48;3.73;;;1.37;;
14603;SDS011;7388;51.078;13.740;2022-10-04T15:53:12;10.53;;;2.40;;
14603;SDS011;7388;51.078;13.740;2022-10-04T16:01:39;4.47;;;2.13;;
14603;SDS011;7388;51.078;13.740;2022-10-04T16:12:27;5.83;;;2.10;;
14603;SDS011;7388;51.078;13.740;2022-10-04T16:26:02;5.73;;;4.60;;
14603;SDS011;7388;51.078;13.740;2022-10-04T16:31:45;8.13;;;6.23;;
14603;SDS011;7388;51.078;13.740;2022-10-04T16:34:23;5.93;;;5.33;;
14603;SDS011;7388;51.078;13.740;2022-10-04T16:42:36;6.13;;;3.22;;
14603;SDS011;7388;51.078;13.740;2022-10-04T16:47:57;5.88;;;2.70;;
14603;SDS011;7388;51.078;13.740;2022-10-04T16:56:31;2.47;;;1.90;;
14603;SDS011;7388;51.078;13.740;2022-10-04T17:04:50;5.47;;;2.80;;
14603;SDS011;7388;51.078;13.740;2022-10-04T17:10:14;4.60;;;3.35;;
14603;SDS011;7388;51.078;13.740;2022-10-04T17:16:09;5.22;;;2.83;;
14603;SDS011;7388;51.078;13.740;2022-10-04T17:26:58;7.70;;;5.13;;
14603;SDS011;7388;51.078;13.740;2022-10-04T17:35:55;6.53;;;4.20;;
14603;SDS011;7388;51.078;13.740;2022-10-04T17:49:42;5.28;;;4.32;;
14603;SDS011;7388;51.078;13.740;2022-10-04T17:52:31;5.30;;;3.90;;
14603;SDS011;7388;51.078;13.740;2022-10-04T17:55:25;7.30;;;4.75;;
14603;SDS011;7388;51.078;13.740;2022-10-04T17:58:01;5.03;;;4.15;;
14603;SDS011;7388;51.078;13.740;2022-10-04T18:03:19;11.88;;;4.85;;
14603;SDS011;7388;51.078;13.740;2022-10-04T18:05:56;5.32;;;3.85;;
14603;SDS011;7388;51.078;13.740;2022-10-04T18:14:13;4.60;;;4.00;;
14603;SDS011;7388;51.078;13.740;2022-10-04T18:16:52;9.13;;;5.63;;
14603;SDS011;7388;51.078;13.740;2022-10-04T18:24:44;9.77;;;7.38;;
14603;SDS011;7388;51.078;13.740;2022-10-04T18:27:26;13.65;;;9.15;;
14603;SDS011;7388;51.078;13.740;2022-10-04T18:30:01;13.27;;;8.45;;
14603;SDS011;7388;51.078;13.740;2022-10-04T18:34:53;10.57;;;8.20;;
14603;SDS011;7388;51.078;13.740;2022-10-04T18:37:40;11.00;;;8.52;;
14603;SDS011;7388;51.078;13.740;2022-10-04T18:40:16;11.80;;;6.93;;
14603;SDS011;7388;51.078;13.740;2022-10-04T18:43:07;11.55;;;8.55;;
14603;SDS011;7388;51.078;13.740;2022-10-04T18:46:00;16.25;;;9.52;;
14603;SDS011;7388;51.078;13.740;2022-10-04T18:51:40;14.88;;;8.93;;
14603;SDS011;7388;51.078;13.740;2022-10-04T18:57:23;11.13;;;8.75;;
14603;SDS011;7388;51.078;13.740;2022-10-04T19:00:20;9.55;;;8.40;;
14603;SDS011;7388;51.078;13.740;2022-10-04T19:03:19;9.68;;;6.18;;
14603;SDS011;7388;51.078;13.740;2022-10-04T19:08:44;8.48;;;7.30;;
14603;SDS011;7388;51.078;13.740;2022-10-04T19:11:56;10.80;;;6.57;;
14603;SDS011;7388;51.078;13.740;2022-10-04T19:14:27;10.15;;;7.80;;
14603;SDS011;7388;51.078;13.740;2022-10-04T19:22:36;9.75;;;6.07;;
14603;SDS011;7388;51.078;13.740;2022-10-04T19:27:56;7.55;;;6.30;;
14603;SDS011;7388;51.078;13.740;2022-10-04T19:31:11;8.20;;;5.55;;
14603;SDS011;7388;51.078;13.740;2022-10-04T19:38:54;8.73;;;6.60;;
14603;SDS011;7388;51.078;13.740;2022-10-04T19:43:53;7.25;;;6.00;;
14603;SDS011;7388;51.078;13.740;2022-10-04T19:49:16;8.77;;;6.45;;
14603;SDS011;7388;51.078;13.740;2022-10-04T19:51:54;11.98;;;7.55;;
14603;SDS011;7388;51.078;13.740;2022-10-04T19:54:38;7.15;;;6.22;;
14603;SDS011;7388;51.078;13.740;2022-10-04T19:57:04;9.60;;;6.28;;
14603;SDS011;7388;51.078;13.740;2022-10-04T19:59:39;8.80;;;5.50;;
14603;SDS011;7388;51.078;13.740;2022-10-04T20:02:10;8.35;;;6.18;;
14603;SDS011;7388;51.078;13.740;2022-10-04T20:04:37;10.80;;;6.10;;
14603;SDS011;7388;51.078;13.740;2022-10-04T20:07:07;11.73;;;8.75;;
14603;SDS011;7388;51.078;13.740;2022-10-04T20:17:58;9.23;;;8.10;;
14603;SDS011;7388;51.078;13.740;2022-10-04T20:23:07;9.35;;;8.35;;
14603;SDS011;7388;51.078;13.740;2022-10-04T20:28:10;7.03;;;6.30;;
14603;SDS011;7388;51.078;13.740;2022-10-04T20:30:59;9.43;;;7.22;;
14603;SDS011;7388;51.078;13.740;2022-10-04T20:35:59;7.03;;;6.32;;
14603;SDS011;7388;51.078;13.740;2022-10-04T20:38:46;7.07;;;5.50;;
14603;SDS011;7388;51.078;13.740;2022-10-04T20:43:54;8.70;;;5.50;;
14603;SDS011;7388;51.078;13.740;2022-10-04T20:46:25;5.85;;;5.13;;
14603;SDS011;7388;51.078;13.740;2022-10-04T20:49:02;5.72;;;5.13;;
14603;SDS011;7388;51.078;13.740;2022-10-04T20:51:47;17.50;;;5.30;;
14603;SDS011;7388;51.078;13.740;2022-10-04T20:54:17;6.10;;;5.45;;
14603;SDS011;7388;51.078;13.740;2022-10-04T20:56:48;9.00;;;5.25;;
14603;SDS011;7388;51.078;13.740;2022-10-04T20:59:16;7.95;;;4.75;;
14603;SDS011;7388;51.078;13.740;2022-10-04T21:01:42;6.57;;;5.60;;
14603;SDS011;7388;51.078;13.740;2022-10-04T21:04:26;7.78;;;5.28;;
14603;SDS011;7388;51.078;13.740;2022-10-04T21:06:57;6.88;;;5.15;;
14603;SDS011;7388;51.078;13.740;2022-10-04T21:09:24;7.60;;;5.10;;
14603;SDS011;7388;51.078;13.740;2022-10-04T21:11:52;7.80;;;4.82;;
14603;SDS011;7388;51.078;13.740;2022-10-04T21:14:23;6.80;;;4.65;;
14603;SDS011;7388;51.078;13.740;2022-10-04T21:16:49;5.68;;;4.50;;
14603;SDS011;7388;51.078;13.740;2022-10-04T21:21:58;7.13;;;4.47;;
14603;SDS011;7388;51.078;13.740;2022-10-04T21:30:12;6.63;;;4.90;;
14603;SDS011;7388;51.078;13.740;2022-10-04T21:32:40;6.47;;;5.25;;
14603;SDS011;7388;51.078;13.740;2022-10-04T21:35:06;6.20;;;5.60;;
14603;SDS011;7388;51.078;13.740;2022-10-04T21:37:33;4.88;;;4.30;;
14603;SDS011;7388;51.078;13.740;2022-10-04T21:40:00;6.10;;;4.95;;
14603;SDS011;7388;51.078;13.740;2022-10-04T21:42:26;4.32;;;3.65;;
14603;SDS011;7388;51.078;13.740;2022-10-04T21:44:52;5.13;;;4.37;;
14603;SDS011;7388;51.078;13.740;2022-10-04T21:47:18;5.67;;;5.10;;
14603;SDS011;7388;51.078;13.740;2022-10-04T21:49:49;6.70;;;4.32;;
14603;SDS011;7388;51.078;13.740;2022-10-04T21:52:19;6.68;;;4.85;;
14603;SDS011;7388;51.078;13.740;2022-10-04T21:54:45;6.30;;;5.00;;
14603;SDS011;7388;51.078;13.740;2022-10-04T21:57:11;5.50;;;4.37;;
14603;SDS011;7388;51.078;13.740;2022-10-04T21:59:37;6.57;;;4.97;;
14603;SDS011;7388;51.078;13.740;2022-10-04T22:02:03;5.47;;;4.20;;
14603;SDS011;7388;51.078;13.740;2022-10-04T22:04:29;5.80;;;5.23;;
14603;SDS011;7388;51.078;13.740;2022-10-04T22:06:54;7.27;;;5.80;;
14603;SDS011;7388;51.078;13.740;2022-10-04T22:09:20;5.53;;;4.90;;
14603;SDS011;7388;51.078;13.740;2022-10-04T22:11:46;4.57;;;4.17;;
14603;SDS011;7388;51.078;13.740;2022-10-04T22:14:11;6.00;;;4.67;;
14603;SDS011;7388;51.078;13.740;2022-10-04T22:16:37;8.53;;;5.20;;
14603;SDS011;7388;51.078;13.740;2022-10-04T22:19:03;8.90;;;6.70;;
14603;SDS011;7388;51.078;13.740;2022-10-04T22:21:29;7.67;;;5.50;;
14603;SDS011;7388;51.078;13.740;2022-10-04T22:23:54;12.60;;;10.53;;
14603;SDS011;7388;51.078;13.740;2022-10-04T22:26:21;17.30;;;11.00;;
14603;SDS011;7388;51.078;13.740;2022-10-04T22:28:56;12.68;;;9.30;;
14603;SDS011;7388;51.078;13.740;2022-10-04T22:31:25;10.55;;;7.55;;
14603;SDS011;7388;51.078;13.740;2022-10-04T22:33:53;8.23;;;4.72;;
14603;SDS011;7388;51.078;13.740;2022-10-04T22:38:57;15.27;;;12.32;;
14603;SDS011;7388;51.078;13.740;2022-10-04T22:41:32;12.73;;;8.35;;
14603;SDS011;7388;51.078;13.740;2022-10-04T22:44:11;9.50;;;6.18;;
14603;SDS011;7388;51.078;13.740;2022-10-04T22:46:41;6.30;;;5.70;;
14603;SDS011;7388;51.078;13.740;2022-10-04T22:49:09;6.55;;;5.00;;
14603;SDS011;7388;51.078;13.740;2022-10-04T22:51:40;12.13;;;4.65;;
14603;SDS011;7388;51.078;13.740;2022-10-04T22:54:10;7.97;;;5.63;;
14603;SDS011;7388;51.078;13.740;2022-10-04T22:56:38;6.07;;;5.47;;
14603;SDS011;7388;51.078;13.740;2022-10-04T22:59:04;9.35;;;5.60;;
14603;SDS011;7388;51.078;13.740;2022-10-04T23:01:32;8.95;;;5.00;;
14603;SDS011;7388;51.078;13.740;2022-10-04T23:03:58;9.50;;;5.77;;
14603;SDS011;7388;51.078;13.740;2022-10-04T23:06:24;7.60;;;6.00;;
14603;SDS011;7388;51.078;13.740;2022-10-04T23:08:49;6.00;;;4.97;;
14603;SDS011;7388;51.078;13.740;2022-10-04T23:11:15;6.30;;;5.70;;
14603;SDS011;7388;51.078;13.740;2022-10-04T23:13:41;5.55;;;5.05;;
14603;SDS011;7388;51.078;13.740;2022-10-04T23:18:43;5.78;;;4.75;;
14603;SDS011;7388;51.078;13.740;2022-10-04T23:21:14;4.70;;;4.00;;
14603;SDS011;7388;51.078;13.740;2022-10-04T23:23:47;8.60;;;4.78;;
14603;SDS011;7388;51.078;13.740;2022-10-04T23:26:24;5.25;;;4.32;;
14603;SDS011;7388;51.078;13.740;2022-10-04T23:28:56;5.68;;;4.95;;
14603;SDS011;7388;51.078;13.740;2022-10-04T23:31:23;6.07;;;4.75;;
14603;SDS011;7388;51.078;13.740;2022-10-04T23:33:51;5.22;;;4.55;;
14603;SDS011;7388;51.078;13.740;2022-10-04T23:36:19;7.45;;;4.97;;
14603;SDS011;7388;51.078;13.740;2022-10-04T23:38:47;7.68;;;5.18;;
14603;SDS011;7388;51.078;13.740;2022-10-04T23:41:18;5.68;;;4.75;;
14603;SDS011;7388;51.078;13.740;2022-10-04T23:43:44;5.63;;;4.43;;
14603;SDS011;7388;51.078;13.740;2022-10-04T23:46:15;6.15;;;4.47;;
14603;SDS011;7388;51.078;13.740;2022-10-04T23:48:43;6.80;;;4.75;;
14603;SDS011;7388;51.078;13.740;2022-10-04T23:51:11;6.68;;;4.03;;
14603;SDS011;7388;51.078;13.740;2022-10-04T23:53:40;6.30;;;5.03;;
14603;SDS011;7388;51.078;13.740;2022-10-04T23:56:25;5.75;;;4.88;;
14603;SDS011;7388;51.078;13.740;2022-10-04T23:58:53;7.25;;;4.15;;
